sensor_id;sensor_type;location;lat;lon;timestamp;P1;durP1;ratioP1;P2;durP2;ratioP2
78561;SDS011;68963;52.138;5.446;2023-05-07T00:00:05;11.65;;;8.88;;
78561;SDS011;68963;52.138;5.446;2023-05-07T00:02:34;13.02;;;9.10;;
78561;SDS011;68963;52.138;5.446;2023-05-07T00:05:02;12.98;;;8.85;;
78561;SDS011;68963;52.138;5.446;2023-05-07T00:07:29;12.13;;;8.88;;
78561;SDS011;68963;52.138;5.446;2023-05-07T00:09:56;13.40;;;8.77;;
78561;SDS011;68963;52.138;5.446;2023-05-07T00:12:22;13.77;;;8.88;;
78561;SDS011;68963;52.138;5.446;2023-05-07T00:14:49;13.43;;;8.70;;
78561;SDS011;68963;52.138;5.446;2023-05-07T00:17:15;15.05;;;8.82;;
78561;SDS011;68963;52.138;5.446;2023-05-07T00:19:42;12.55;;;8.82;;
78561;SDS011;68963;52.138;5.446;2023-05-07T00:22:08;14.27;;;9.38;;
78561;SDS011;68963;52.138;5.446;2023-05-07T00:24:34;12.82;;;8.75;;
78561;SDS011;68963;52.138;5.446;2023-05-07T00:27:01;13.55;;;8.80;;
78561;SDS011;68963;52.138;5.446;2023-05-07T00:29:27;12.55;;;8.98;;
78561;SDS011;68963;52.138;5.446;2023-05-07T00:31:54;12.65;;;9.10;;
78561;SDS011;68963;52.138;5.446;2023-05-07T00:34:21;13.55;;;9.80;;
78561;SDS011;68963;52.138;5.446;2023-05-07T00:36:47;12.90;;;9.27;;
78561;SDS011;68963;52.138;5.446;2023-05-07T00:39:14;13.77;;;8.93;;
78561;SDS011;68963;52.138;5.446;2023-05-07T00:41:41;13.68;;;9.30;;
78561;SDS011;68963;52.138;5.446;2023-05-07T00:44:07;15.48;;;8.80;;
78561;SDS011;68963;52.138;5.446;2023-05-07T00:46:34;14.43;;;9.63;;
78561;SDS011;68963;52.138;5.446;2023-05-07T00:49:01;14.35;;;8.93;;
78561;SDS011;68963;52.138;5.446;2023-05-07T00:51:30;13.30;;;8.55;;
78561;SDS011;68963;52.138;5.446;2023-05-07T00:56:23;13.18;;;9.07;;
78561;SDS011;68963;52.138;5.446;2023-05-07T00:58:49;13.10;;;9.45;;
78561;SDS011;68963;52.138;5.446;2023-05-07T01:01:16;14.15;;;9.30;;
78561;SDS011;68963;52.138;5.446;2023-05-07T01:03:43;15.48;;;10.57;;
78561;SDS011;68963;52.138;5.446;2023-05-07T01:06:10;14.80;;;9.95;;
78561;SDS011;68963;52.138;5.446;2023-05-07T01:08:39;13.65;;;9.18;;
78561;SDS011;68963;52.138;5.446;2023-05-07T01:11:07;13.43;;;9.52;;
78561;SDS011;68963;52.138;5.446;2023-05-07T01:13:35;14.40;;;9.63;;
78561;SDS011;68963;52.138;5.446;2023-05-07T01:16:02;14.18;;;9.23;;
78561;SDS011;68963;52.138;5.446;2023-05-07T01:18:29;14.35;;;10.15;;
78561;SDS011;68963;52.138;5.446;2023-05-07T01:20:57;16.48;;;10.40;;
78561;SDS011;68963;52.138;5.446;2023-05-07T01:23:25;15.77;;;9.75;;
78561;SDS011;68963;52.138;5.446;2023-05-07T01:25:53;13.77;;;9.20;;
78561;SDS011;68963;52.138;5.446;2023-05-07T01:28:20;15.45;;;9.73;;
78561;SDS011;68963;52.138;5.446;2023-05-07T01:30:49;15.70;;;10.20;;
78561;SDS011;68963;52.138;5.446;2023-05-07T01:33:20;14.05;;;9.57;;
78561;SDS011;68963;52.138;5.446;2023-05-07T01:35:51;14.05;;;9.63;;
78561;SDS011;68963;52.138;5.446;2023-05-07T01:38:20;14.23;;;9.73;;
78561;SDS011;68963;52.138;5.446;2023-05-07T01:40:48;12.23;;;8.90;;
78561;SDS011;68963;52.138;5.446;2023-05-07T01:43:15;12.98;;;9.30;;
78561;SDS011;68963;52.138;5.446;2023-05-07T01:45:42;13.32;;;9.52;;
78561;SDS011;68963;52.138;5.446;2023-05-07T01:50:37;13.93;;;8.88;;
78561;SDS011;68963;52.138;5.446;2023-05-07T01:53:04;16.92;;;9.30;;
78561;SDS011;68963;52.138;5.446;2023-05-07T01:55:31;13.85;;;9.15;;
78561;SDS011;68963;52.138;5.446;2023-05-07T01:57:58;15.00;;;9.90;;
78561;SDS011;68963;52.138;5.446;2023-05-07T02:00:24;14.77;;;9.32;;
78561;SDS011;68963;52.138;5.446;2023-05-07T02:02:51;14.98;;;9.07;;
78561;SDS011;68963;52.138;5.446;2023-05-07T02:05:19;14.80;;;9.85;;
78561;SDS011;68963;52.138;5.446;2023-05-07T02:07:45;12.73;;;8.88;;
78561;SDS011;68963;52.138;5.446;2023-05-07T02:10:12;14.25;;;9.70;;
78561;SDS011;68963;52.138;5.446;2023-05-07T02:12:38;13.40;;;8.95;;
78561;SDS011;68963;52.138;5.446;2023-05-07T02:15:05;14.60;;;9.82;;
78561;SDS011;68963;52.138;5.446;2023-05-07T02:17:32;14.82;;;10.07;;
78561;SDS011;68963;52.138;5.446;2023-05-07T02:19:59;15.10;;;9.82;;
78561;SDS011;68963;52.138;5.446;2023-05-07T02:22:26;12.75;;;8.95;;
78561;SDS011;68963;52.138;5.446;2023-05-07T02:24:52;15.50;;;9.93;;
78561;SDS011;68963;52.138;5.446;2023-05-07T02:27:19;15.18;;;9.70;;
78561;SDS011;68963;52.138;5.446;2023-05-07T02:29:45;14.13;;;9.93;;
78561;SDS011;68963;52.138;5.446;2023-05-07T02:32:12;14.25;;;9.68;;
78561;SDS011;68963;52.138;5.446;2023-05-07T02:34:38;13.77;;;9.52;;
78561;SDS011;68963;52.138;5.446;2023-05-07T02:37:05;14.93;;;9.52;;
78561;SDS011;68963;52.138;5.446;2023-05-07T02:39:32;14.15;;;9.52;;
78561;SDS011;68963;52.138;5.446;2023-05-07T02:41:58;14.95;;;9.57;;
78561;SDS011;68963;52.138;5.446;2023-05-07T02:44:25;14.65;;;10.10;;
78561;SDS011;68963;52.138;5.446;2023-05-07T02:46:51;13.85;;;9.93;;
78561;SDS011;68963;52.138;5.446;2023-05-07T02:49:18;14.00;;;9.70;;
78561;SDS011;68963;52.138;5.446;2023-05-07T02:51:44;15.82;;;9.95;;
78561;SDS011;68963;52.138;5.446;2023-05-07T02:54:11;19.02;;;10.98;;
78561;SDS011;68963;52.138;5.446;2023-05-07T02:56:37;14.38;;;10.57;;
78561;SDS011;68963;52.138;5.446;2023-05-07T02:59:04;13.65;;;9.95;;
78561;SDS011;68963;52.138;5.446;2023-05-07T03:01:30;15.55;;;10.18;;
78561;SDS011;68963;52.138;5.446;2023-05-07T03:03:57;17.48;;;10.23;;
78561;SDS011;68963;52.138;5.446;2023-05-07T03:06:23;15.60;;;10.57;;
78561;SDS011;68963;52.138;5.446;2023-05-07T03:08:50;14.65;;;10.70;;
78561;SDS011;68963;52.138;5.446;2023-05-07T03:11:16;14.68;;;10.25;;
78561;SDS011;68963;52.138;5.446;2023-05-07T03:13:43;15.38;;;10.38;;
78561;SDS011;68963;52.138;5.446;2023-05-07T03:16:09;14.98;;;10.68;;
78561;SDS011;68963;52.138;5.446;2023-05-07T03:18:36;16.23;;;11.68;;
78561;SDS011;68963;52.138;5.446;2023-05-07T03:21:03;17.42;;;11.05;;
78561;SDS011;68963;52.138;5.446;2023-05-07T03:23:29;15.93;;;11.43;;
78561;SDS011;68963;52.138;5.446;2023-05-07T03:25:56;15.98;;;11.35;;
78561;SDS011;68963;52.138;5.446;2023-05-07T03:28:22;16.90;;;11.75;;
78561;SDS011;68963;52.138;5.446;2023-05-07T03:30:49;19.10;;;11.68;;
78561;SDS011;68963;52.138;5.446;2023-05-07T03:33:15;17.20;;;11.40;;
78561;SDS011;68963;52.138;5.446;2023-05-07T03:35:42;16.08;;;11.13;;
78561;SDS011;68963;52.138;5.446;2023-05-07T03:38:08;17.67;;;11.23;;
78561;SDS011;68963;52.138;5.446;2023-05-07T03:40:35;17.27;;;10.80;;
78561;SDS011;68963;52.138;5.446;2023-05-07T03:43:01;16.20;;;11.23;;
78561;SDS011;68963;52.138;5.446;2023-05-07T03:45:28;16.55;;;11.27;;
78561;SDS011;68963;52.138;5.446;2023-05-07T03:47:54;18.55;;;12.15;;
78561;SDS011;68963;52.138;5.446;2023-05-07T03:50:21;16.80;;;11.57;;
78561;SDS011;68963;52.138;5.446;2023-05-07T03:52:47;16.10;;;10.90;;
78561;SDS011;68963;52.138;5.446;2023-05-07T03:55:14;19.58;;;11.52;;
78561;SDS011;68963;52.138;5.446;2023-05-07T03:57:40;16.63;;;11.80;;
78561;SDS011;68963;52.138;5.446;2023-05-07T04:00:07;17.05;;;11.63;;
78561;SDS011;68963;52.138;5.446;2023-05-07T04:02:35;18.65;;;11.65;;
78561;SDS011;68963;52.138;5.446;2023-05-07T04:05:02;18.50;;;11.73;;
78561;SDS011;68963;52.138;5.446;2023-05-07T04:07:28;18.50;;;12.38;;
78561;SDS011;68963;52.138;5.446;2023-05-07T04:09:55;20.13;;;12.55;;
78561;SDS011;68963;52.138;5.446;2023-05-07T04:12:21;17.45;;;11.98;;
78561;SDS011;68963;52.138;5.446;2023-05-07T04:14:48;17.98;;;11.48;;
78561;SDS011;68963;52.138;5.446;2023-05-07T04:17:14;16.83;;;12.07;;
78561;SDS011;68963;52.138;5.446;2023-05-07T04:19:40;18.33;;;12.10;;
78561;SDS011;68963;52.138;5.446;2023-05-07T04:22:11;20.95;;;11.45;;
78561;SDS011;68963;52.138;5.446;2023-05-07T04:24:38;19.33;;;13.02;;
78561;SDS011;68963;52.138;5.446;2023-05-07T04:27:04;21.52;;;13.07;;
78561;SDS011;68963;52.138;5.446;2023-05-07T04:29:32;21.25;;;13.43;;
78561;SDS011;68963;52.138;5.446;2023-05-07T04:31:58;22.92;;;13.88;;
78561;SDS011;68963;52.138;5.446;2023-05-07T04:34:25;20.70;;;13.02;;
78561;SDS011;68963;52.138;5.446;2023-05-07T04:36:52;20.95;;;12.85;;
78561;SDS011;68963;52.138;5.446;2023-05-07T04:39:18;21.10;;;13.57;;
78561;SDS011;68963;52.138;5.446;2023-05-07T04:41:44;20.40;;;13.45;;
78561;SDS011;68963;52.138;5.446;2023-05-07T04:44:11;20.90;;;13.07;;
78561;SDS011;68963;52.138;5.446;2023-05-07T04:46:38;21.27;;;13.88;;
78561;SDS011;68963;52.138;5.446;2023-05-07T04:49:04;20.30;;;13.35;;
78561;SDS011;68963;52.138;5.446;2023-05-07T04:51:31;19.77;;;13.95;;
78561;SDS011;68963;52.138;5.446;2023-05-07T04:53:59;21.25;;;13.52;;
78561;SDS011;68963;52.138;5.446;2023-05-07T04:56:27;20.02;;;13.80;;
78561;SDS011;68963;52.138;5.446;2023-05-07T04:58:55;22.38;;;13.75;;
78561;SDS011;68963;52.138;5.446;2023-05-07T05:01:22;21.50;;;13.57;;
78561;SDS011;68963;52.138;5.446;2023-05-07T05:03:48;23.85;;;14.23;;
78561;SDS011;68963;52.138;5.446;2023-05-07T05:06:15;21.70;;;13.68;;
78561;SDS011;68963;52.138;5.446;2023-05-07T05:08:41;20.60;;;13.35;;
78561;SDS011;68963;52.138;5.446;2023-05-07T05:11:08;20.25;;;13.93;;
78561;SDS011;68963;52.138;5.446;2023-05-07T05:13:34;23.08;;;14.80;;
78561;SDS011;68963;52.138;5.446;2023-05-07T05:16:01;22.98;;;14.15;;
78561;SDS011;68963;52.138;5.446;2023-05-07T05:18:27;23.90;;;13.52;;
78561;SDS011;68963;52.138;5.446;2023-05-07T05:20:54;21.77;;;14.25;;
78561;SDS011;68963;52.138;5.446;2023-05-07T05:23:20;21.88;;;14.40;;
78561;SDS011;68963;52.138;5.446;2023-05-07T05:25:47;24.25;;;14.40;;
78561;SDS011;68963;52.138;5.446;2023-05-07T05:28:13;21.35;;;14.35;;
78561;SDS011;68963;52.138;5.446;2023-05-07T05:30:40;21.52;;;14.20;;
78561;SDS011;68963;52.138;5.446;2023-05-07T05:33:06;22.73;;;14.50;;
78561;SDS011;68963;52.138;5.446;2023-05-07T05:35:33;20.65;;;13.98;;
78561;SDS011;68963;52.138;5.446;2023-05-07T05:38:01;23.17;;;14.57;;
78561;SDS011;68963;52.138;5.446;2023-05-07T05:40:28;23.67;;;14.18;;
78561;SDS011;68963;52.138;5.446;2023-05-07T05:42:54;22.02;;;13.90;;
78561;SDS011;68963;52.138;5.446;2023-05-07T05:45:21;21.65;;;14.38;;
78561;SDS011;68963;52.138;5.446;2023-05-07T05:47:47;22.13;;;14.52;;
78561;SDS011;68963;52.138;5.446;2023-05-07T05:50:14;22.52;;;14.30;;
78561;SDS011;68963;52.138;5.446;2023-05-07T05:52:41;22.15;;;14.40;;
78561;SDS011;68963;52.138;5.446;2023-05-07T05:55:08;23.75;;;15.15;;
78561;SDS011;68963;52.138;5.446;2023-05-07T05:57:35;23.30;;;14.75;;
78561;SDS011;68963;52.138;5.446;2023-05-07T06:00:02;21.90;;;15.20;;
78561;SDS011;68963;52.138;5.446;2023-05-07T06:02:29;24.40;;;14.80;;
78561;SDS011;68963;52.138;5.446;2023-05-07T06:04:56;22.15;;;14.98;;
78561;SDS011;68963;52.138;5.446;2023-05-07T06:07:22;23.27;;;15.32;;
78561;SDS011;68963;52.138;5.446;2023-05-07T06:09:49;23.25;;;15.52;;
78561;SDS011;68963;52.138;5.446;2023-05-07T06:12:15;22.45;;;14.82;;
78561;SDS011;68963;52.138;5.446;2023-05-07T06:14:45;22.15;;;14.82;;
78561;SDS011;68963;52.138;5.446;2023-05-07T06:17:11;21.83;;;14.98;;
78561;SDS011;68963;52.138;5.446;2023-05-07T06:19:37;22.38;;;14.52;;
78561;SDS011;68963;52.138;5.446;2023-05-07T06:22:04;22.98;;;15.52;;
78561;SDS011;68963;52.138;5.446;2023-05-07T06:24:31;23.08;;;15.35;;
78561;SDS011;68963;52.138;5.446;2023-05-07T06:26:57;22.77;;;14.85;;
78561;SDS011;68963;52.138;5.446;2023-05-07T06:29:24;22.25;;;14.70;;
78561;SDS011;68963;52.138;5.446;2023-05-07T06:31:52;24.05;;;15.20;;
78561;SDS011;68963;52.138;5.446;2023-05-07T06:34:19;23.77;;;15.77;;
78561;SDS011;68963;52.138;5.446;2023-05-07T06:36:46;26.42;;;16.27;;
78561;SDS011;68963;52.138;5.446;2023-05-07T06:39:12;23.23;;;15.55;;
78561;SDS011;68963;52.138;5.446;2023-05-07T06:41:39;23.15;;;15.77;;
78561;SDS011;68963;52.138;5.446;2023-05-07T06:44:05;22.90;;;15.13;;
78561;SDS011;68963;52.138;5.446;2023-05-07T06:46:32;22.67;;;15.32;;
78561;SDS011;68963;52.138;5.446;2023-05-07T06:48:58;23.58;;;15.38;;
78561;SDS011;68963;52.138;5.446;2023-05-07T06:51:25;23.55;;;15.18;;
78561;SDS011;68963;52.138;5.446;2023-05-07T06:53:52;23.83;;;16.75;;
78561;SDS011;68963;52.138;5.446;2023-05-07T06:56:19;23.55;;;16.00;;
78561;SDS011;68963;52.138;5.446;2023-05-07T06:58:46;23.42;;;15.85;;
78561;SDS011;68963;52.138;5.446;2023-05-07T07:01:12;22.92;;;15.70;;
78561;SDS011;68963;52.138;5.446;2023-05-07T07:03:39;25.40;;;16.05;;
78561;SDS011;68963;52.138;5.446;2023-05-07T07:06:06;23.98;;;16.20;;
78561;SDS011;68963;52.138;5.446;2023-05-07T07:08:32;23.38;;;16.15;;
78561;SDS011;68963;52.138;5.446;2023-05-07T07:10:59;25.70;;;15.35;;
78561;SDS011;68963;52.138;5.446;2023-05-07T07:13:26;27.00;;;16.55;;
78561;SDS011;68963;52.138;5.446;2023-05-07T07:15:52;23.58;;;15.82;;
78561;SDS011;68963;52.138;5.446;2023-05-07T07:18:19;24.42;;;15.80;;
78561;SDS011;68963;52.138;5.446;2023-05-07T07:20:46;25.30;;;16.90;;
78561;SDS011;68963;52.138;5.446;2023-05-07T07:23:13;24.50;;;15.88;;
78561;SDS011;68963;52.138;5.446;2023-05-07T07:25:41;23.27;;;15.43;;
78561;SDS011;68963;52.138;5.446;2023-05-07T07:28:07;23.67;;;15.80;;
78561;SDS011;68963;52.138;5.446;2023-05-07T07:30:34;23.80;;;15.00;;
78561;SDS011;68963;52.138;5.446;2023-05-07T07:33:00;23.98;;;15.70;;
78561;SDS011;68963;52.138;5.446;2023-05-07T07:35:29;22.85;;;15.15;;
78561;SDS011;68963;52.138;5.446;2023-05-07T07:37:56;23.70;;;15.98;;
78561;SDS011;68963;52.138;5.446;2023-05-07T07:40:23;23.10;;;15.48;;
78561;SDS011;68963;52.138;5.446;2023-05-07T07:42:50;25.17;;;15.45;;
78561;SDS011;68963;52.138;5.446;2023-05-07T07:45:20;22.55;;;15.50;;
78561;SDS011;68963;52.138;5.446;2023-05-07T07:47:46;22.73;;;14.57;;
78561;SDS011;68963;52.138;5.446;2023-05-07T07:50:13;22.85;;;15.23;;
78561;SDS011;68963;52.138;5.446;2023-05-07T07:52:57;22.42;;;15.88;;
78561;SDS011;68963;52.138;5.446;2023-05-07T07:55:23;23.38;;;15.65;;
78561;SDS011;68963;52.138;5.446;2023-05-07T07:57:50;22.77;;;16.15;;
78561;SDS011;68963;52.138;5.446;2023-05-07T08:00:16;23.02;;;15.75;;
78561;SDS011;68963;52.138;5.446;2023-05-07T08:02:43;24.30;;;15.52;;
78561;SDS011;68963;52.138;5.446;2023-05-07T08:05:10;25.40;;;15.73;;
78561;SDS011;68963;52.138;5.446;2023-05-07T08:07:36;23.58;;;14.68;;
78561;SDS011;68963;52.138;5.446;2023-05-07T08:10:03;23.08;;;15.00;;
78561;SDS011;68963;52.138;5.446;2023-05-07T08:12:30;24.20;;;14.88;;
78561;SDS011;68963;52.138;5.446;2023-05-07T08:14:56;23.23;;;16.00;;
78561;SDS011;68963;52.138;5.446;2023-05-07T08:17:23;22.80;;;15.82;;
78561;SDS011;68963;52.138;5.446;2023-05-07T08:19:50;24.25;;;16.88;;
78561;SDS011;68963;52.138;5.446;2023-05-07T08:22:16;24.05;;;15.75;;
78561;SDS011;68963;52.138;5.446;2023-05-07T08:24:44;23.67;;;15.93;;
78561;SDS011;68963;52.138;5.446;2023-05-07T08:27:11;23.70;;;16.70;;
78561;SDS011;68963;52.138;5.446;2023-05-07T08:29:38;25.65;;;17.20;;
78561;SDS011;68963;52.138;5.446;2023-05-07T08:32:04;28.23;;;17.23;;
78561;SDS011;68963;52.138;5.446;2023-05-07T08:34:31;26.35;;;17.75;;
78561;SDS011;68963;52.138;5.446;2023-05-07T08:36:57;25.63;;;17.88;;
78561;SDS011;68963;52.138;5.446;2023-05-07T08:39:24;25.55;;;17.33;;
78561;SDS011;68963;52.138;5.446;2023-05-07T08:41:50;26.00;;;17.95;;
78561;SDS011;68963;52.138;5.446;2023-05-07T08:44:22;28.50;;;18.38;;
78561;SDS011;68963;52.138;5.446;2023-05-07T08:46:52;27.20;;;18.58;;
78561;SDS011;68963;52.138;5.446;2023-05-07T08:49:20;28.05;;;18.38;;
78561;SDS011;68963;52.138;5.446;2023-05-07T08:51:47;26.95;;;18.63;;
78561;SDS011;68963;52.138;5.446;2023-05-07T08:54:15;25.85;;;17.55;;
78561;SDS011;68963;52.138;5.446;2023-05-07T08:56:42;28.63;;;18.45;;
78561;SDS011;68963;52.138;5.446;2023-05-07T08:59:09;27.20;;;18.02;;
78561;SDS011;68963;52.138;5.446;2023-05-07T09:01:36;28.50;;;18.60;;
78561;SDS011;68963;52.138;5.446;2023-05-07T09:04:03;29.77;;;18.20;;
78561;SDS011;68963;52.138;5.446;2023-05-07T09:06:30;27.38;;;17.90;;
78561;SDS011;68963;52.138;5.446;2023-05-07T09:08:57;26.95;;;18.25;;
78561;SDS011;68963;52.138;5.446;2023-05-07T09:11:24;26.35;;;17.55;;
78561;SDS011;68963;52.138;5.446;2023-05-07T09:13:54;27.48;;;17.80;;
78561;SDS011;68963;52.138;5.446;2023-05-07T09:16:22;28.83;;;17.95;;
78561;SDS011;68963;52.138;5.446;2023-05-07T09:18:52;28.08;;;18.65;;
78561;SDS011;68963;52.138;5.446;2023-05-07T09:21:20;28.40;;;18.85;;
78561;SDS011;68963;52.138;5.446;2023-05-07T09:26:20;25.50;;;17.65;;
78561;SDS011;68963;52.138;5.446;2023-05-07T09:28:47;28.17;;;18.00;;
78561;SDS011;68963;52.138;5.446;2023-05-07T09:31:14;26.92;;;17.63;;
78561;SDS011;68963;52.138;5.446;2023-05-07T09:33:40;26.60;;;18.50;;
78561;SDS011;68963;52.138;5.446;2023-05-07T09:36:07;26.63;;;17.67;;
78561;SDS011;68963;52.138;5.446;2023-05-07T09:38:36;26.67;;;17.48;;
78561;SDS011;68963;52.138;5.446;2023-05-07T09:41:08;26.15;;;17.17;;
78561;SDS011;68963;52.138;5.446;2023-05-07T09:43:36;26.83;;;17.48;;
78561;SDS011;68963;52.138;5.446;2023-05-07T09:46:07;24.50;;;16.80;;
78561;SDS011;68963;52.138;5.446;2023-05-07T09:48:42;25.48;;;17.08;;
78561;SDS011;68963;52.138;5.446;2023-05-07T09:51:29;26.92;;;17.30;;
78561;SDS011;68963;52.138;5.446;2023-05-07T09:54:00;25.20;;;16.48;;
78561;SDS011;68963;52.138;5.446;2023-05-07T09:56:29;26.02;;;17.23;;
78561;SDS011;68963;52.138;5.446;2023-05-07T09:58:57;25.33;;;16.80;;
78561;SDS011;68963;52.138;5.446;2023-05-07T10:01:26;26.20;;;16.65;;
78561;SDS011;68963;52.138;5.446;2023-05-07T10:03:54;28.00;;;16.95;;
78561;SDS011;68963;52.138;5.446;2023-05-07T10:08:50;24.48;;;15.35;;
78561;SDS011;68963;52.138;5.446;2023-05-07T10:11:19;26.38;;;15.45;;
78561;SDS011;68963;52.138;5.446;2023-05-07T10:13:46;22.70;;;15.38;;
78561;SDS011;68963;52.138;5.446;2023-05-07T10:16:14;24.30;;;15.75;;
78561;SDS011;68963;52.138;5.446;2023-05-07T10:18:41;23.30;;;15.45;;
78561;SDS011;68963;52.138;5.446;2023-05-07T10:23:50;23.88;;;14.95;;
78561;SDS011;68963;52.138;5.446;2023-05-07T10:26:23;24.35;;;14.70;;
78561;SDS011;68963;52.138;5.446;2023-05-07T10:28:55;23.40;;;15.57;;
78561;SDS011;68963;52.138;5.446;2023-05-07T10:34:15;22.80;;;15.45;;
78561;SDS011;68963;52.138;5.446;2023-05-07T10:36:46;24.00;;;15.27;;
78561;SDS011;68963;52.138;5.446;2023-05-07T10:39:13;21.80;;;14.45;;
78561;SDS011;68963;52.138;5.446;2023-05-07T10:41:40;22.30;;;14.95;;
78561;SDS011;68963;52.138;5.446;2023-05-07T10:44:07;24.27;;;14.95;;
78561;SDS011;68963;52.138;5.446;2023-05-07T10:46:33;23.48;;;15.43;;
78561;SDS011;68963;52.138;5.446;2023-05-07T10:51:32;24.17;;;16.02;;
78561;SDS011;68963;52.138;5.446;2023-05-07T10:56:38;21.92;;;14.57;;
78561;SDS011;68963;52.138;5.446;2023-05-07T11:01:53;21.85;;;14.15;;
78561;SDS011;68963;52.138;5.446;2023-05-07T11:04:25;24.95;;;15.13;;
78561;SDS011;68963;52.138;5.446;2023-05-07T11:09:55;22.75;;;15.63;;
78561;SDS011;68963;52.138;5.446;2023-05-07T11:15:07;24.30;;;16.40;;
78561;SDS011;68963;52.138;5.446;2023-05-07T11:17:54;22.13;;;14.88;;
78561;SDS011;68963;52.138;5.446;2023-05-07T11:26:06;25.23;;;16.92;;
78561;SDS011;68963;52.138;5.446;2023-05-07T11:28:38;25.55;;;17.33;;
78561;SDS011;68963;52.138;5.446;2023-05-07T11:31:06;24.23;;;16.58;;
78561;SDS011;68963;52.138;5.446;2023-05-07T11:33:33;25.35;;;17.25;;
78561;SDS011;68963;52.138;5.446;2023-05-07T11:36:01;25.38;;;17.00;;
78561;SDS011;68963;52.138;5.446;2023-05-07T11:38:29;24.45;;;16.83;;
78561;SDS011;68963;52.138;5.446;2023-05-07T11:40:57;24.67;;;17.42;;
78561;SDS011;68963;52.138;5.446;2023-05-07T11:43:27;24.95;;;17.48;;
78561;SDS011;68963;52.138;5.446;2023-05-07T11:45:53;23.33;;;16.85;;
78561;SDS011;68963;52.138;5.446;2023-05-07T11:48:20;26.30;;;17.98;;
78561;SDS011;68963;52.138;5.446;2023-05-07T11:50:51;23.70;;;17.15;;
78561;SDS011;68963;52.138;5.446;2023-05-07T11:53:19;23.98;;;17.55;;
78561;SDS011;68963;52.138;5.446;2023-05-07T11:55:46;25.35;;;16.80;;
78561;SDS011;68963;52.138;5.446;2023-05-07T11:58:18;25.90;;;16.63;;
78561;SDS011;68963;52.138;5.446;2023-05-07T12:00:50;24.10;;;17.23;;
78561;SDS011;68963;52.138;5.446;2023-05-07T12:03:18;23.45;;;15.55;;
78561;SDS011;68963;52.138;5.446;2023-05-07T12:05:47;25.50;;;17.70;;
78561;SDS011;68963;52.138;5.446;2023-05-07T12:08:15;21.30;;;16.20;;
78561;SDS011;68963;52.138;5.446;2023-05-07T12:10:45;24.15;;;17.00;;
78561;SDS011;68963;52.138;5.446;2023-05-07T12:13:20;25.58;;;16.88;;
78561;SDS011;68963;52.138;5.446;2023-05-07T12:15:51;24.58;;;16.35;;
78561;SDS011;68963;52.138;5.446;2023-05-07T12:18:19;21.83;;;15.48;;
78561;SDS011;68963;52.138;5.446;2023-05-07T12:20:46;21.88;;;16.40;;
78561;SDS011;68963;52.138;5.446;2023-05-07T12:23:13;25.20;;;16.63;;
78561;SDS011;68963;52.138;5.446;2023-05-07T12:25:40;24.58;;;16.63;;
78561;SDS011;68963;52.138;5.446;2023-05-07T12:28:16;23.10;;;15.85;;
78561;SDS011;68963;52.138;5.446;2023-05-07T12:30:44;21.80;;;15.90;;
78561;SDS011;68963;52.138;5.446;2023-05-07T12:33:12;24.08;;;16.85;;
78561;SDS011;68963;52.138;5.446;2023-05-07T12:35:42;21.95;;;15.63;;
78561;SDS011;68963;52.138;5.446;2023-05-07T12:38:10;20.67;;;14.82;;
78561;SDS011;68963;52.138;5.446;2023-05-07T12:40:48;21.05;;;14.07;;
78561;SDS011;68963;52.138;5.446;2023-05-07T12:43:19;21.45;;;14.05;;
78561;SDS011;68963;52.138;5.446;2023-05-07T12:45:51;18.52;;;12.93;;
78561;SDS011;68963;52.138;5.446;2023-05-07T12:48:23;18.33;;;12.05;;
78561;SDS011;68963;52.138;5.446;2023-05-07T12:50:53;17.70;;;12.52;;
78561;SDS011;68963;52.138;5.446;2023-05-07T12:53:22;17.33;;;12.10;;
78561;SDS011;68963;52.138;5.446;2023-05-07T12:55:50;18.48;;;11.63;;
78561;SDS011;68963;52.138;5.446;2023-05-07T12:58:19;23.15;;;11.57;;
78561;SDS011;68963;52.138;5.446;2023-05-07T13:00:48;18.35;;;11.98;;
78561;SDS011;68963;52.138;5.446;2023-05-07T13:03:29;17.50;;;12.52;;
78561;SDS011;68963;52.138;5.446;2023-05-07T13:05:58;16.42;;;12.45;;
78561;SDS011;68963;52.138;5.446;2023-05-07T13:08:30;17.38;;;12.05;;
78561;SDS011;68963;52.138;5.446;2023-05-07T13:11:01;20.33;;;12.57;;
78561;SDS011;68963;52.138;5.446;2023-05-07T13:13:30;18.15;;;12.52;;
78561;SDS011;68963;52.138;5.446;2023-05-07T13:15:58;21.85;;;12.15;;
78561;SDS011;68963;52.138;5.446;2023-05-07T13:18:25;18.05;;;13.23;;
78561;SDS011;68963;52.138;5.446;2023-05-07T13:20:55;17.85;;;12.98;;
78561;SDS011;68963;52.138;5.446;2023-05-07T13:23:22;19.50;;;13.20;;
78561;SDS011;68963;52.138;5.446;2023-05-07T13:25:49;19.98;;;13.63;;
78561;SDS011;68963;52.138;5.446;2023-05-07T13:28:16;18.73;;;12.05;;
78561;SDS011;68963;52.138;5.446;2023-05-07T13:30:43;20.30;;;14.73;;
78561;SDS011;68963;52.138;5.446;2023-05-07T13:33:10;19.52;;;12.98;;
78561;SDS011;68963;52.138;5.446;2023-05-07T13:35:37;20.05;;;13.70;;
78561;SDS011;68963;52.138;5.446;2023-05-07T13:38:04;19.65;;;13.65;;
78561;SDS011;68963;52.138;5.446;2023-05-07T13:40:31;17.35;;;11.50;;
78561;SDS011;68963;52.138;5.446;2023-05-07T13:42:59;17.25;;;12.10;;
78561;SDS011;68963;52.138;5.446;2023-05-07T13:45:28;17.27;;;12.82;;
78561;SDS011;68963;52.138;5.446;2023-05-07T13:47:58;22.00;;;13.60;;
78561;SDS011;68963;52.138;5.446;2023-05-07T13:50:24;18.92;;;14.02;;
78561;SDS011;68963;52.138;5.446;2023-05-07T13:52:53;20.10;;;14.15;;
78561;SDS011;68963;52.138;5.446;2023-05-07T13:55:19;21.73;;;14.45;;
78561;SDS011;68963;52.138;5.446;2023-05-07T13:57:47;19.02;;;13.40;;
78561;SDS011;68963;52.138;5.446;2023-05-07T14:00:13;19.05;;;13.32;;
78561;SDS011;68963;52.138;5.446;2023-05-07T14:02:41;19.60;;;13.55;;
78561;SDS011;68963;52.138;5.446;2023-05-07T14:05:08;19.60;;;12.88;;
78561;SDS011;68963;52.138;5.446;2023-05-07T14:07:36;19.83;;;13.20;;
78561;SDS011;68963;52.138;5.446;2023-05-07T14:10:02;19.15;;;13.25;;
78561;SDS011;68963;52.138;5.446;2023-05-07T14:12:29;18.70;;;13.27;;
78561;SDS011;68963;52.138;5.446;2023-05-07T14:14:56;18.75;;;13.30;;
78561;SDS011;68963;52.138;5.446;2023-05-07T14:17:22;19.63;;;13.38;;
78561;SDS011;68963;52.138;5.446;2023-05-07T14:19:51;20.92;;;13.40;;
78561;SDS011;68963;52.138;5.446;2023-05-07T14:22:20;19.38;;;13.23;;
78561;SDS011;68963;52.138;5.446;2023-05-07T14:24:49;20.20;;;13.85;;
78561;SDS011;68963;52.138;5.446;2023-05-07T14:27:31;19.92;;;14.05;;
78561;SDS011;68963;52.138;5.446;2023-05-07T14:29:58;21.27;;;14.77;;
78561;SDS011;68963;52.138;5.446;2023-05-07T14:32:24;19.63;;;13.75;;
78561;SDS011;68963;52.138;5.446;2023-05-07T14:34:51;20.23;;;14.40;;
78561;SDS011;68963;52.138;5.446;2023-05-07T14:37:17;18.30;;;13.18;;
78561;SDS011;68963;52.138;5.446;2023-05-07T14:39:46;19.33;;;12.65;;
78561;SDS011;68963;52.138;5.446;2023-05-07T14:42:15;17.25;;;11.70;;
78561;SDS011;68963;52.138;5.446;2023-05-07T14:44:41;16.27;;;10.77;;
78561;SDS011;68963;52.138;5.446;2023-05-07T14:47:08;18.40;;;11.38;;
78561;SDS011;68963;52.138;5.446;2023-05-07T14:49:35;18.20;;;12.32;;
78561;SDS011;68963;52.138;5.446;2023-05-07T14:52:01;18.08;;;12.05;;
78561;SDS011;68963;52.138;5.446;2023-05-07T14:54:28;16.88;;;10.98;;
78561;SDS011;68963;52.138;5.446;2023-05-07T14:56:54;18.45;;;12.25;;
78561;SDS011;68963;52.138;5.446;2023-05-07T14:59:22;17.85;;;12.15;;